sensor_id;sensor_type;location;lat;lon;timestamp;pressure;altitude;pressure_sealevel;temperature;humidity
36932;BME280;22847;42.654;23.370;2024-03-23T00:55:59;94689.03;;;9.33;53.51
36932;BME280;22847;42.654;23.370;2024-03-23T00:58:24;94721.78;;;9.55;52.68
36932;BME280;22847;42.654;23.370;2024-03-23T01:00:50;94701.66;;;9.38;53.29
36932;BME280;22847;42.654;23.370;2024-03-23T01:03:15;94679.31;;;9.26;53.55
36932;BME280;22847;42.654;23.370;2024-03-23T01:05:41;94670.00;;;9.23;53.44
36932;BME280;22847;42.654;23.370;2024-03-23T01:08:06;94729.44;;;9.37;53.38
36932;BME280;22847;42.654;23.370;2024-03-23T01:10:32;94649.44;;;9.01;53.04
36932;BME280;22847;42.654;23.370;2024-03-23T01:12:57;94620.41;;;8.67;53.74
36932;BME280;22847;42.654;23.370;2024-03-23T01:15:23;94691.63;;;9.24;52.14
36932;BME280;22847;42.654;23.370;2024-03-23T01:17:48;94663.00;;;8.95;53.05
36932;BME280;22847;42.654;23.370;2024-03-23T01:20:14;94603.16;;;8.57;53.77
36932;BME280;22847;42.654;23.370;2024-03-23T01:22:39;94680.41;;;9.04;53.01
36932;BME280;22847;42.654;23.370;2024-03-23T01:25:05;94706.56;;;9.12;54.08
36932;BME280;22847;42.654;23.370;2024-03-23T01:27:31;94600.13;;;7.81;50.82
36932;BME280;22847;42.654;23.370;2024-03-23T01:29:56;94701.38;;;8.63;54.56
36932;BME280;22847;42.654;23.370;2024-03-23T01:32:21;94704.53;;;8.66;51.82
36932;BME280;22847;42.654;23.370;2024-03-23T01:34:47;94677.59;;;8.67;52.71
36932;BME280;22847;42.654;23.370;2024-03-23T01:37:12;94706.00;;;8.99;52.81
36932;BME280;22847;42.654;23.370;2024-03-23T01:39:38;94712.03;;;9.09;52.83
36932;BME280;22847;42.654;23.370;2024-03-23T01:42:04;94635.47;;;8.64;53.56
36932;BME280;22847;42.654;23.370;2024-03-23T01:44:30;94632.53;;;8.47;52.77
36932;BME280;22847;42.654;23.370;2024-03-23T01:46:55;94684.34;;;8.89;52.17
36932;BME280;22847;42.654;23.370;2024-03-23T01:49:20;94683.25;;;9.01;51.93
36932;BME280;22847;42.654;23.370;2024-03-23T01:51:46;94688.75;;;9.08;52.57
36932;BME280;22847;42.654;23.370;2024-03-23T01:54:12;94666.44;;;8.95;50.73
36932;BME280;22847;42.654;23.370;2024-03-23T01:56:37;94709.56;;;9.08;52.00
36932;BME280;22847;42.654;23.370;2024-03-23T01:59:04;94700.38;;;8.94;52.89
36932;BME280;22847;42.654;23.370;2024-03-23T02:01:30;94663.69;;;8.17;50.36
36932;BME280;22847;42.654;23.370;2024-03-23T02:03:56;94670.16;;;8.23;53.89
36932;BME280;22847;42.654;23.370;2024-03-23T02:06:22;94730.78;;;8.63;51.11
36932;BME280;22847;42.654;23.370;2024-03-23T02:08:49;94686.84;;;8.50;52.16
36932;BME280;22847;42.654;23.370;2024-03-23T02:11:14;94699.88;;;8.70;53.63
36932;BME280;22847;42.654;23.370;2024-03-23T02:13:40;94569.03;;;7.91;55.30
36932;BME280;22847;42.654;23.370;2024-03-23T02:16:05;94696.84;;;8.65;53.34
36932;BME280;22847;42.654;23.370;2024-03-23T02:18:32;94559.31;;;7.93;52.13
36932;BME280;22847;42.654;23.370;2024-03-23T02:20:57;94669.84;;;8.37;51.82
36932;BME280;22847;42.654;23.370;2024-03-23T02:23:23;94586.22;;;7.82;52.78
36932;BME280;22847;42.654;23.370;2024-03-23T02:25:50;94674.09;;;8.47;52.39
36932;BME280;22847;42.654;23.370;2024-03-23T02:28:15;94703.81;;;8.55;51.23
36932;BME280;22847;42.654;23.370;2024-03-23T02:30:41;94524.19;;;6.98;53.60
36932;BME280;22847;42.654;23.370;2024-03-23T02:33:06;94681.28;;;8.04;53.17
36932;BME280;22847;42.654;23.370;2024-03-23T02:35:32;94628.75;;;7.70;53.95
36932;BME280;22847;42.654;23.370;2024-03-23T02:37:57;94694.88;;;8.17;53.75
36932;BME280;22847;42.654;23.370;2024-03-23T02:40:23;94712.22;;;8.17;54.81
36932;BME280;22847;42.654;23.370;2024-03-23T02:42:50;94737.41;;;8.26;54.21
36932;BME280;22847;42.654;23.370;2024-03-23T02:45:15;94716.16;;;8.32;54.58
36932;BME280;22847;42.654;23.370;2024-03-23T02:47:41;94571.38;;;7.63;54.81
36932;BME280;22847;42.654;23.370;2024-03-23T02:50:07;94698.03;;;8.51;51.55
36932;BME280;22847;42.654;23.370;2024-03-23T02:52:32;94686.03;;;8.50;52.90
36932;BME280;22847;42.654;23.370;2024-03-23T02:54:58;94558.94;;;7.67;52.58
36932;BME280;22847;42.654;23.370;2024-03-23T02:57:23;94659.78;;;8.23;52.18
36932;BME280;22847;42.654;23.370;2024-03-23T02:59:49;94696.25;;;8.42;52.52
36932;BME280;22847;42.654;23.370;2024-03-23T03:02:15;94712.25;;;8.47;52.65
36932;BME280;22847;42.654;23.370;2024-03-23T03:04:42;94684.66;;;8.25;53.70
36932;BME280;22847;42.654;23.370;2024-03-23T03:07:07;94549.78;;;7.33;54.53
36932;BME280;22847;42.654;23.370;2024-03-23T03:09:33;94698.94;;;8.31;53.67
36932;BME280;22847;42.654;23.370;2024-03-23T03:12:03;94543.75;;;7.32;54.71
36932;BME280;22847;42.654;23.370;2024-03-23T03:14:28;94680.72;;;8.00;55.03
36932;BME280;22847;42.654;23.370;2024-03-23T03:16:54;94718.25;;;8.17;55.32
36932;BME280;22847;42.654;23.370;2024-03-23T03:19:19;94696.34;;;8.31;54.77
36932;BME280;22847;42.654;23.370;2024-03-23T03:21:45;94723.00;;;8.33;54.26
36932;BME280;22847;42.654;23.370;2024-03-23T03:24:10;94549.84;;;7.42;53.75
36932;BME280;22847;42.654;23.370;2024-03-23T03:26:36;94696.88;;;8.34;55.01
36932;BME280;22847;42.654;23.370;2024-03-23T03:29:02;94550.28;;;7.47;54.58
36932;BME280;22847;42.654;23.370;2024-03-23T03:31:28;94696.88;;;8.34;52.83
36932;BME280;22847;42.654;23.370;2024-03-23T03:33:53;94674.44;;;8.03;54.68
36932;BME280;22847;42.654;23.370;2024-03-23T03:36:19;94533.72;;;7.18;54.44
36932;BME280;22847;42.654;23.370;2024-03-23T03:38:45;94680.72;;;8.00;54.91
36932;BME280;22847;42.654;23.370;2024-03-23T03:41:10;94528.47;;;7.08;53.95
36932;BME280;22847;42.654;23.370;2024-03-23T03:43:36;94678.75;;;7.93;54.29
36932;BME280;22847;42.654;23.370;2024-03-23T03:46:02;94576.78;;;7.30;53.61
36932;BME280;22847;42.654;23.370;2024-03-23T03:48:28;94708.75;;;8.06;56.05
36932;BME280;22847;42.654;23.370;2024-03-23T03:50:54;94668.56;;;7.80;55.15
36932;BME280;22847;42.654;23.370;2024-03-23T03:53:19;94711.72;;;8.02;55.11
36932;BME280;22847;42.654;23.370;2024-03-23T03:55:45;94683.13;;;7.92;54.30
36932;BME280;22847;42.654;23.370;2024-03-23T03:58:10;94725.41;;;7.62;51.25
36932;BME280;22847;42.654;23.370;2024-03-23T04:00:36;94698.56;;;7.52;51.53
36932;BME280;22847;42.654;23.370;2024-03-23T04:03:02;94711.75;;;7.60;51.51
36932;BME280;22847;42.654;23.370;2024-03-23T04:05:28;94564.31;;;6.51;52.20
36932;BME280;22847;42.654;23.370;2024-03-23T04:07:53;94546.56;;;6.35;52.31
36932;BME280;22847;42.654;23.370;2024-03-23T04:10:20;94659.19;;;6.95;52.16
36932;BME280;22847;42.654;23.370;2024-03-23T04:12:45;94566.34;;;6.36;52.01
36932;BME280;22847;42.654;23.370;2024-03-23T04:15:11;94729.59;;;7.22;51.66
36932;BME280;22847;42.654;23.370;2024-03-23T04:17:37;94622.66;;;6.66;52.12
36932;BME280;22847;42.654;23.370;2024-03-23T04:20:03;94728.81;;;6.99;52.37
36932;BME280;22847;42.654;23.370;2024-03-23T04:22:30;94729.53;;;7.01;52.67
36932;BME280;22847;42.654;23.370;2024-03-23T04:24:57;94706.31;;;7.00;52.74
36932;BME280;22847;42.654;23.370;2024-03-23T04:27:23;94711.47;;;7.11;52.51
36932;BME280;22847;42.654;23.370;2024-03-23T04:29:52;94734.31;;;7.17;52.50
36932;BME280;22847;42.654;23.370;2024-03-23T04:32:18;94716.88;;;7.19;52.13
36932;BME280;22847;42.654;23.370;2024-03-23T04:34:44;94735.38;;;7.14;51.88
36932;BME280;22847;42.654;23.370;2024-03-23T04:37:10;94715.03;;;6.99;51.81
36932;BME280;22847;42.654;23.370;2024-03-23T04:39:36;94701.59;;;7.05;52.32
36932;BME280;22847;42.654;23.370;2024-03-23T04:42:02;94714.56;;;7.05;52.30
36932;BME280;22847;42.654;23.370;2024-03-23T04:44:29;94729.66;;;7.00;51.41
36932;BME280;22847;42.654;23.370;2024-03-23T04:46:54;94583.22;;;6.19;51.07
36932;BME280;22847;42.654;23.370;2024-03-23T04:49:20;94602.84;;;6.33;51.81
36932;BME280;22847;42.654;23.370;2024-03-23T04:51:46;94730.69;;;7.08;52.14
36932;BME280;22847;42.654;23.370;2024-03-23T04:54:12;94746.59;;;7.15;51.06
36932;BME280;22847;42.654;23.370;2024-03-23T04:56:37;94705.38;;;7.01;50.93
36932;BME280;22847;42.654;23.370;2024-03-23T04:59:03;94739.84;;;7.24;51.49
36932;BME280;22847;42.654;23.370;2024-03-23T05:01:33;94707.47;;;7.07;51.44
36932;BME280;22847;42.654;23.370;2024-03-23T05:03:58;94703.34;;;7.04;50.90
36932;BME280;22847;42.654;23.370;2024-03-23T05:06:25;94651.38;;;6.74;51.00
36932;BME280;22847;42.654;23.370;2024-03-23T05:08:53;94727.84;;;7.96;49.82
36932;BME280;22847;42.654;23.370;2024-03-23T05:11:19;94642.44;;;9.78;44.72
36932;BME280;22847;42.654;23.370;2024-03-23T05:13:46;94729.22;;;13.43;38.30
36932;BME280;22847;42.654;23.370;2024-03-23T05:16:11;94675.72;;;13.69;35.78
36932;BME280;22847;42.654;23.370;2024-03-23T05:18:37;94701.97;;;12.43;37.74
36932;BME280;22847;42.654;23.370;2024-03-23T05:21:02;94695.84;;;12.94;38.00
36932;BME280;22847;42.654;23.370;2024-03-23T05:23:28;94723.75;;;14.98;34.31
36932;BME280;22847;42.654;23.370;2024-03-23T05:25:54;94722.72;;;13.05;39.44
36932;BME280;22847;42.654;23.370;2024-03-23T05:28:20;94688.03;;;12.35;38.21
36932;BME280;22847;42.654;23.370;2024-03-23T05:30:55;94715.94;;;12.94;37.74
36932;BME280;22847;42.654;23.370;2024-03-23T05:33:22;94632.38;;;11.91;38.30
36932;BME280;22847;42.654;23.370;2024-03-23T05:36:01;94715.81;;;10.40;41.72
36932;BME280;22847;42.654;23.370;2024-03-23T05:38:27;94755.06;;;10.19;43.29
36932;BME280;22847;42.654;23.370;2024-03-23T05:40:54;94718.97;;;11.60;40.95
36932;BME280;22847;42.654;23.370;2024-03-23T05:43:20;94686.72;;;13.73;37.16
36932;BME280;22847;42.654;23.370;2024-03-23T05:45:55;94589.25;;;13.13;36.36
36932;BME280;22847;42.654;23.370;2024-03-23T05:48:21;94671.19;;;15.37;33.95
36932;BME280;22847;42.654;23.370;2024-03-23T05:50:51;94699.44;;;16.11;32.49
36932;BME280;22847;42.654;23.370;2024-03-23T05:53:17;94697.38;;;16.73;31.43
36932;BME280;22847;42.654;23.370;2024-03-23T05:55:43;94685.09;;;16.51;31.53
36932;BME280;22847;42.654;23.370;2024-03-23T05:58:10;94706.47;;;15.96;31.55
36932;BME280;22847;42.654;23.370;2024-03-23T06:00:35;94699.75;;;16.31;30.78
36932;BME280;22847;42.654;23.370;2024-03-23T06:03:01;94678.44;;;14.96;32.85
36932;BME280;22847;42.654;23.370;2024-03-23T06:05:26;94706.84;;;15.31;32.75
36932;BME280;22847;42.654;23.370;2024-03-23T06:07:52;94616.19;;;15.35;33.90
36932;BME280;22847;42.654;23.370;2024-03-23T06:10:18;94712.53;;;15.96;32.71
36932;BME280;22847;42.654;23.370;2024-03-23T06:12:43;94711.06;;;15.40;33.26
36932;BME280;22847;42.654;23.370;2024-03-23T06:15:11;94668.72;;;15.89;32.80
36932;BME280;22847;42.654;23.370;2024-03-23T06:17:36;94641.16;;;16.37;31.76
36932;BME280;22847;42.654;23.370;2024-03-23T06:20:03;94674.31;;;17.05;31.18
36932;BME280;22847;42.654;23.370;2024-03-23T06:22:28;94620.78;;;17.04;30.79
36932;BME280;22847;42.654;23.370;2024-03-23T06:24:54;94689.06;;;17.71;30.64
36932;BME280;22847;42.654;23.370;2024-03-23T06:27:19;94680.59;;;17.39;32.10
36932;BME280;22847;42.654;23.370;2024-03-23T06:29:45;94614.66;;;17.33;30.69
36932;BME280;22847;42.654;23.370;2024-03-23T06:32:10;94685.25;;;17.73;30.28
36932;BME280;22847;42.654;23.370;2024-03-23T06:34:36;94688.09;;;17.57;30.75
36932;BME280;22847;42.654;23.370;2024-03-23T06:37:01;94656.41;;;17.51;30.53
36932;BME280;22847;42.654;23.370;2024-03-23T06:39:30;94680.84;;;17.59;30.33
36932;BME280;22847;42.654;23.370;2024-03-23T06:41:56;94696.56;;;17.89;30.21
36932;BME280;22847;42.654;23.370;2024-03-23T06:44:21;94671.31;;;18.01;29.48
36932;BME280;22847;42.654;23.370;2024-03-23T06:46:47;94577.66;;;17.48;29.95
36932;BME280;22847;42.654;23.370;2024-03-23T06:49:14;94619.44;;;17.87;29.39
36932;BME280;22847;42.654;23.370;2024-03-23T06:51:40;94706.06;;;17.32;30.54
36932;BME280;22847;42.654;23.370;2024-03-23T06:54:05;94693.47;;;16.99;30.69
36932;BME280;22847;42.654;23.370;2024-03-23T06:56:31;94567.72;;;16.57;31.03
36932;BME280;22847;42.654;23.370;2024-03-23T06:58:57;94706.69;;;17.34;30.82
36932;BME280;22847;42.654;23.370;2024-03-23T07:01:23;94686.44;;;17.20;31.54
36932;BME280;22847;42.654;23.370;2024-03-23T07:03:48;94688.50;;;17.39;31.63
36932;BME280;22847;42.654;23.370;2024-03-23T07:06:14;94690.81;;;17.28;31.51
36932;BME280;22847;42.654;23.370;2024-03-23T07:08:39;94685.69;;;17.41;31.89
36932;BME280;22847;42.654;23.370;2024-03-23T07:11:05;94680.22;;;17.42;31.54
36932;BME280;22847;42.654;23.370;2024-03-23T07:13:31;94694.66;;;17.61;32.55
36932;BME280;22847;42.654;23.370;2024-03-23T07:15:56;94667.59;;;17.95;31.69
36932;BME280;22847;42.654;23.370;2024-03-23T07:18:22;94649.97;;;17.96;31.47
36932;BME280;22847;42.654;23.370;2024-03-23T07:20:55;94669.44;;;17.73;31.52
36932;BME280;22847;42.654;23.370;2024-03-23T07:23:22;94671.56;;;17.63;31.82
36932;BME280;22847;42.654;23.370;2024-03-23T07:25:57;94519.16;;;16.44;32.08
36932;BME280;22847;42.654;23.370;2024-03-23T07:28:23;94688.75;;;17.09;32.85
36932;BME280;22847;42.654;23.370;2024-03-23T07:30:48;94577.00;;;16.38;33.38
36932;BME280;22847;42.654;23.370;2024-03-23T07:33:23;94658.00;;;17.16;32.49
36932;BME280;22847;42.654;23.370;2024-03-23T07:35:49;94651.84;;;17.45;32.73
36932;BME280;22847;42.654;23.370;2024-03-23T07:38:14;94642.69;;;17.40;33.74
36932;BME280;22847;42.654;23.370;2024-03-23T07:40:40;94660.44;;;17.89;31.87
36932;BME280;22847;42.654;23.370;2024-03-23T07:43:05;94518.41;;;16.80;32.72
36932;BME280;22847;42.654;23.370;2024-03-23T07:45:31;94648.59;;;17.42;32.43
36932;BME280;22847;42.654;23.370;2024-03-23T07:47:56;94652.00;;;17.22;32.29
36932;BME280;22847;42.654;23.370;2024-03-23T07:50:22;94651.16;;;17.57;32.24
36932;BME280;22847;42.654;23.370;2024-03-23T07:52:47;94422.59;;;16.45;32.09
36932;BME280;22847;42.654;23.370;2024-03-23T07:55:13;94664.22;;;17.80;32.09
36932;BME280;22847;42.654;23.370;2024-03-23T07:57:38;94661.81;;;17.85;32.13
36932;BME280;22847;42.654;23.370;2024-03-23T08:00:04;94651.34;;;17.70;31.92
36932;BME280;22847;42.654;23.370;2024-03-23T08:02:31;94564.28;;;17.07;32.04
36932;BME280;22847;42.654;23.370;2024-03-23T08:04:57;94643.09;;;17.23;32.94
36932;BME280;22847;42.654;23.370;2024-03-23T08:07:22;94474.63;;;16.43;33.50
36932;BME280;22847;42.654;23.370;2024-03-23T08:09:48;94660.06;;;17.56;32.94
36932;BME280;22847;42.654;23.370;2024-03-23T08:12:13;94486.13;;;16.57;32.94
36932;BME280;22847;42.654;23.370;2024-03-23T08:14:39;94665.09;;;17.66;32.20
36932;BME280;22847;42.654;23.370;2024-03-23T08:17:04;94609.13;;;17.92;31.38
36932;BME280;22847;42.654;23.370;2024-03-23T08:19:30;94636.66;;;18.38;32.13
36932;BME280;22847;42.654;23.370;2024-03-23T08:21:55;94648.59;;;18.90;31.61
36932;BME280;22847;42.654;23.370;2024-03-23T08:24:21;94637.13;;;19.17;30.61
36932;BME280;22847;42.654;23.370;2024-03-23T08:26:46;94635.09;;;19.12;30.83
36932;BME280;22847;42.654;23.370;2024-03-23T08:29:12;94648.44;;;18.98;30.70
36932;BME280;22847;42.654;23.370;2024-03-23T08:31:37;94638.19;;;18.82;30.85
36932;BME280;22847;42.654;23.370;2024-03-23T08:34:03;94643.91;;;18.02;31.46
36932;BME280;22847;42.654;23.370;2024-03-23T08:36:28;94641.97;;;18.66;31.53
36932;BME280;22847;42.654;23.370;2024-03-23T08:38:55;94579.88;;;18.83;30.73
36932;BME280;22847;42.654;23.370;2024-03-23T08:41:21;94642.59;;;18.68;30.37
36932;BME280;22847;42.654;23.370;2024-03-23T08:43:47;94629.41;;;18.47;31.18
36932;BME280;22847;42.654;23.370;2024-03-23T08:46:14;94603.38;;;18.09;30.80
36932;BME280;22847;42.654;23.370;2024-03-23T08:48:44;94623.63;;;18.30;31.04
36932;BME280;22847;42.654;23.370;2024-03-23T08:51:13;94616.94;;;18.62;30.24
36932;BME280;22847;42.654;23.370;2024-03-23T08:53:39;94617.19;;;18.67;30.35
36932;BME280;22847;42.654;23.370;2024-03-23T08:56:06;94610.97;;;18.81;30.72
36932;BME280;22847;42.654;23.370;2024-03-23T08:58:33;94472.91;;;17.84;29.81
36932;BME280;22847;42.654;23.370;2024-03-23T09:01:10;94589.66;;;18.89;29.55
36932;BME280;22847;42.654;23.370;2024-03-23T09:03:36;94601.53;;;19.20;29.32
36932;BME280;22847;42.654;23.370;2024-03-23T09:06:06;94594.16;;;19.63;28.92
36932;BME280;22847;42.654;23.370;2024-03-23T09:08:32;94570.38;;;19.76;28.70
36932;BME280;22847;42.654;23.370;2024-03-23T09:10:57;94592.34;;;19.63;28.90
36932;BME280;22847;42.654;23.370;2024-03-23T09:13:23;94608.75;;;19.45;29.97
36932;BME280;22847;42.654;23.370;2024-03-23T09:15:52;94520.81;;;19.04;29.29
36932;BME280;22847;42.654;23.370;2024-03-23T09:18:23;94552.19;;;18.73;30.49
36932;BME280;22847;42.654;23.370;2024-03-23T09:20:49;94563.47;;;18.53;30.32
36932;BME280;22847;42.654;23.370;2024-03-23T09:23:14;94576.09;;;17.96;29.80
36932;BME280;22847;42.654;23.370;2024-03-23T09:25:40;94554.72;;;18.18;29.43
36932;BME280;22847;42.654;23.370;2024-03-23T09:28:06;94562.34;;;18.35;30.20
36932;BME280;22847;42.654;23.370;2024-03-23T09:30:34;94555.41;;;17.99;31.10
36932;BME280;22847;42.654;23.370;2024-03-23T09:33:00;94552.13;;;17.97;31.82
36932;BME280;22847;42.654;23.370;2024-03-23T09:35:26;94520.19;;;18.13;30.96
36932;BME280;22847;42.654;23.370;2024-03-23T09:37:52;94550.16;;;18.68;29.96
36932;BME280;22847;42.654;23.370;2024-03-23T09:40:17;94422.31;;;18.08;28.99
36932;BME280;22847;42.654;23.370;2024-03-23T09:42:49;94519.31;;;18.82;29.32
36932;BME280;22847;42.654;23.370;2024-03-23T09:45:24;94407.63;;;18.47;28.96
36932;BME280;22847;42.654;23.370;2024-03-23T09:47:51;94533.31;;;19.63;28.17
36932;BME280;22847;42.654;23.370;2024-03-23T09:50:17;94492.59;;;19.31;27.82
36932;BME280;22847;42.654;23.370;2024-03-23T09:52:43;94527.81;;;19.57;28.36
36932;BME280;22847;42.654;23.370;2024-03-23T09:55:10;94406.94;;;18.99;27.74
36932;BME280;22847;42.654;23.370;2024-03-23T09:57:36;94501.34;;;19.84;27.68
36932;BME280;22847;42.654;23.370;2024-03-23T10:00:03;94503.13;;;20.23;27.38
36932;BME280;22847;42.654;23.370;2024-03-23T10:02:29;94506.75;;;20.48;27.93
36932;BME280;22847;42.654;23.370;2024-03-23T10:04:55;94502.91;;;20.31;28.46
36932;BME280;22847;42.654;23.370;2024-03-23T10:07:22;94504.31;;;20.40;27.86
36932;BME280;22847;42.654;23.370;2024-03-23T10:09:48;94463.09;;;19.80;28.13
36932;BME280;22847;42.654;23.370;2024-03-23T10:12:17;94464.00;;;20.25;29.77
36932;BME280;22847;42.654;23.370;2024-03-23T10:14:43;94483.06;;;20.60;28.04
36932;BME280;22847;42.654;23.370;2024-03-23T10:19:45;94442.41;;;20.28;27.53
36932;BME280;22847;42.654;23.370;2024-03-23T10:22:13;94479.88;;;20.38;27.63
36932;BME280;22847;42.654;23.370;2024-03-23T10:24:40;94468.94;;;20.15;27.74
36932;BME280;22847;42.654;23.370;2024-03-23T10:27:05;94411.81;;;19.74;27.79
36932;BME280;22847;42.654;23.370;2024-03-23T10:29:31;94470.94;;;20.39;28.43
36932;BME280;22847;42.654;23.370;2024-03-23T10:32:12;94398.22;;;19.51;27.50
36932;BME280;22847;42.654;23.370;2024-03-23T10:34:39;94473.25;;;20.02;27.93
36932;BME280;22847;42.654;23.370;2024-03-23T10:37:05;94327.63;;;19.32;29.19
36932;BME280;22847;42.654;23.370;2024-03-23T10:39:38;94422.97;;;19.89;27.86
36932;BME280;22847;42.654;23.370;2024-03-23T10:42:06;94433.94;;;19.99;29.00
36932;BME280;22847;42.654;23.370;2024-03-23T10:44:33;94427.38;;;20.15;27.87
36932;BME280;22847;42.654;23.370;2024-03-23T10:47:02;94435.53;;;20.14;27.12
36932;BME280;22847;42.654;23.370;2024-03-23T10:49:29;94337.19;;;19.52;27.00
36932;BME280;22847;42.654;23.370;2024-03-23T10:51:57;94425.31;;;20.24;28.59
36932;BME280;22847;42.654;23.370;2024-03-23T10:54:24;94412.25;;;20.29;28.12
36932;BME280;22847;42.654;23.370;2024-03-23T10:56:55;94412.88;;;20.24;27.51
36932;BME280;22847;42.654;23.370;2024-03-23T10:59:22;94284.28;;;19.52;26.92
36932;BME280;22847;42.654;23.370;2024-03-23T11:01:54;94320.41;;;19.85;28.13
36932;BME280;22847;42.654;23.370;2024-03-23T11:04:33;94385.75;;;20.42;26.54
36932;BME280;22847;42.654;23.370;2024-03-23T11:06:59;94396.34;;;20.35;26.07
36932;BME280;22847;42.654;23.370;2024-03-23T11:12:29;94339.72;;;20.43;27.08
36932;BME280;22847;42.654;23.370;2024-03-23T11:15:00;94347.66;;;20.43;26.26
36932;BME280;22847;42.654;23.370;2024-03-23T11:17:27;94366.13;;;20.56;26.27
36932;BME280;22847;42.654;23.370;2024-03-23T11:19:59;94267.44;;;20.29;27.39
36932;BME280;22847;42.654;23.370;2024-03-23T11:27:40;94221.81;;;19.96;25.63
36932;BME280;22847;42.654;23.370;2024-03-23T11:32:51;94324.81;;;20.48;25.79
36932;BME280;22847;42.654;23.370;2024-03-23T11:35:27;94247.38;;;20.09;25.80
36932;BME280;22847;42.654;23.370;2024-03-23T11:38:09;94139.47;;;19.48;26.45
36932;BME280;22847;42.654;23.370;2024-03-23T11:40:49;94313.03;;;20.69;25.51
36932;BME280;22847;42.654;23.370;2024-03-23T11:45:48;94336.28;;;20.67;25.60
36932;BME280;22847;42.654;23.370;2024-03-23T11:48:15;94292.16;;;20.17;25.20
36932;BME280;22847;42.654;23.370;2024-03-23T11:50:46;94318.91;;;20.46;25.36
36932;BME280;22847;42.654;23.370;2024-03-23T11:55:49;94295.41;;;20.57;25.93
36932;BME280;22847;42.654;23.370;2024-03-23T11:58:16;94200.63;;;20.02;25.53
36932;BME280;22847;42.654;23.370;2024-03-23T12:00:42;94272.75;;;20.61;25.67
36932;BME280;22847;42.654;23.370;2024-03-23T12:03:08;94287.56;;;20.68;26.30
36932;BME280;22847;42.654;23.370;2024-03-23T12:05:35;94276.28;;;20.79;27.15
36932;BME280;22847;42.654;23.370;2024-03-23T12:08:16;94193.50;;;20.28;28.28
36932;BME280;22847;42.654;23.370;2024-03-23T12:10:51;94234.81;;;20.67;27.24
36932;BME280;22847;42.654;23.370;2024-03-23T12:13:17;94258.78;;;20.72;26.19
36932;BME280;22847;42.654;23.370;2024-03-23T12:15:48;94154.81;;;20.02;26.22
36932;BME280;22847;42.654;23.370;2024-03-23T12:18:14;94256.66;;;20.62;25.90
36932;BME280;22847;42.654;23.370;2024-03-23T12:20:40;94219.69;;;20.67;27.61
36932;BME280;22847;42.654;23.370;2024-03-23T12:23:11;94239.47;;;20.89;26.54
36932;BME280;22847;42.654;23.370;2024-03-23T12:25:39;94143.84;;;20.30;25.73
36932;BME280;22847;42.654;23.370;2024-03-23T12:28:06;94234.81;;;20.67;25.55
36932;BME280;22847;42.654;23.370;2024-03-23T12:30:37;94236.84;;;20.02;25.76
36932;BME280;22847;42.654;23.370;2024-03-23T12:33:04;94237.59;;;20.16;26.08
36932;BME280;22847;42.654;23.370;2024-03-23T12:35:29;94257.56;;;20.12;27.73
36932;BME280;22847;42.654;23.370;2024-03-23T12:37:55;94108.19;;;19.32;26.81
36932;BME280;22847;42.654;23.370;2024-03-23T12:40:20;94231.28;;;20.17;26.64
36932;BME280;22847;42.654;23.370;2024-03-23T12:42:46;94222.25;;;20.24;26.58
36932;BME280;22847;42.654;23.370;2024-03-23T12:45:11;94216.31;;;20.29;27.04
36932;BME280;22847;42.654;23.370;2024-03-23T12:47:37;94189.22;;;20.27;28.95
36932;BME280;22847;42.654;23.370;2024-03-23T12:50:02;94101.38;;;19.17;27.86
36932;BME280;22847;42.654;23.370;2024-03-23T12:52:28;94191.94;;;19.51;27.17
36932;BME280;22847;42.654;23.370;2024-03-23T12:54:58;94123.09;;;19.26;27.20
36932;BME280;22847;42.654;23.370;2024-03-23T12:57:26;94201.09;;;19.86;26.80
36932;BME280;22847;42.654;23.370;2024-03-23T12:59:53;94053.19;;;18.71;26.71
36932;BME280;22847;42.654;23.370;2024-03-23T13:02:19;94170.81;;;19.44;26.46
36932;BME280;22847;42.654;23.370;2024-03-23T13:04:55;94191.50;;;19.60;24.61
36932;BME280;22847;42.654;23.370;2024-03-23T13:07:22;94179.25;;;19.66;25.12
36932;BME280;22847;42.654;23.370;2024-03-23T13:09:50;94179.00;;;19.74;25.21
36932;BME280;22847;42.654;23.370;2024-03-23T13:12:17;94174.66;;;19.86;24.52
36932;BME280;22847;42.654;23.370;2024-03-23T13:14:44;94177.00;;;20.01;23.51
36932;BME280;22847;42.654;23.370;2024-03-23T13:17:10;94144.09;;;19.90;23.03
36932;BME280;22847;42.654;23.370;2024-03-23T13:19:35;94146.59;;;20.10;23.03
36932;BME280;22847;42.654;23.370;2024-03-23T13:22:01;94162.13;;;20.31;23.17
36932;BME280;22847;42.654;23.370;2024-03-23T13:24:45;94134.28;;;20.22;22.83
36932;BME280;22847;42.654;23.370;2024-03-23T13:27:11;94060.69;;;19.81;23.23
36932;BME280;22847;42.654;23.370;2024-03-23T13:29:36;94147.56;;;20.47;22.50
36932;BME280;22847;42.654;23.370;2024-03-23T13:32:05;94146.72;;;20.71;23.66
36932;BME280;22847;42.654;23.370;2024-03-23T13:34:32;94149.41;;;20.65;23.46
36932;BME280;22847;42.654;23.370;2024-03-23T13:36:58;94134.84;;;20.56;22.19
36932;BME280;22847;42.654;23.370;2024-03-23T13:39:24;94140.56;;;20.53;23.04
36932;BME280;22847;42.654;23.370;2024-03-23T13:41:50;94121.72;;;20.42;22.76
36932;BME280;22847;42.654;23.370;2024-03-23T13:44:16;94107.66;;;20.42;22.44
36932;BME280;22847;42.654;23.370;2024-03-23T13:46:42;94111.03;;;20.49;22.45
36932;BME280;22847;42.654;23.370;2024-03-23T13:49:18;94089.84;;;20.49;22.86
36932;BME280;22847;42.654;23.370;2024-03-23T13:51:49;94011.69;;;20.03;22.53
36932;BME280;22847;42.654;23.370;2024-03-23T13:54:14;94022.31;;;20.22;21.69
36932;BME280;22847;42.654;23.370;2024-03-23T13:56:40;94115.69;;;20.54;21.54
36932;BME280;22847;42.654;23.370;2024-03-23T13:59:05;94113.94;;;20.47;20.53
36932;BME280;22847;42.654;23.370;2024-03-23T14:01:31;94122.66;;;20.30;20.85
36932;BME280;22847;42.654;23.370;2024-03-23T14:03:57;93994.91;;;19.67;21.63